sensor_id;sensor_type;location;lat;lon;timestamp;P1;durP1;ratioP1;P2;durP2;ratioP2
2187;SDS011;1100;52.014;8.540;2023-06-22T00:00:47;3.38;;;1.20;;
2187;SDS011;1100;52.014;8.540;2023-06-22T00:03:13;4.18;;;1.10;;
2187;SDS011;1100;52.014;8.540;2023-06-22T00:05:38;3.13;;;1.20;;
2187;SDS011;1100;52.014;8.540;2023-06-22T00:08:04;4.07;;;1.77;;
2187;SDS011;1100;52.014;8.540;2023-06-22T00:10:30;5.18;;;1.50;;
2187;SDS011;1100;52.014;8.540;2023-06-22T00:12:55;4.63;;;1.63;;
2187;SDS011;1100;52.014;8.540;2023-06-22T00:15:20;3.33;;;1.23;;
2187;SDS011;1100;52.014;8.540;2023-06-22T00:17:46;3.83;;;1.47;;
2187;SDS011;1100;52.014;8.540;2023-06-22T00:20:11;3.70;;;1.50;;
2187;SDS011;1100;52.014;8.540;2023-06-22T00:22:36;4.37;;;1.73;;
2187;SDS011;1100;52.014;8.540;2023-06-22T00:25:06;3.42;;;1.30;;
2187;SDS011;1100;52.014;8.540;2023-06-22T00:27:32;4.43;;;2.10;;
2187;SDS011;1100;52.014;8.540;2023-06-22T00:29:57;4.30;;;1.60;;
2187;SDS011;1100;52.014;8.540;2023-06-22T00:32:22;3.37;;;1.00;;
2187;SDS011;1100;52.014;8.540;2023-06-22T00:34:48;4.50;;;1.70;;
2187;SDS011;1100;52.014;8.540;2023-06-22T00:37:13;4.07;;;1.63;;
2187;SDS011;1100;52.014;8.540;2023-06-22T00:39:38;4.55;;;1.75;;
2187;SDS011;1100;52.014;8.540;2023-06-22T00:42:04;3.80;;;1.37;;
2187;SDS011;1100;52.014;8.540;2023-06-22T00:44:29;5.03;;;1.87;;
2187;SDS011;1100;52.014;8.540;2023-06-22T00:46:55;4.47;;;1.60;;
2187;SDS011;1100;52.014;8.540;2023-06-22T00:49:20;4.33;;;1.70;;
2187;SDS011;1100;52.014;8.540;2023-06-22T00:51:46;4.22;;;1.58;;
2187;SDS011;1100;52.014;8.540;2023-06-22T00:54:12;4.55;;;2.08;;
2187;SDS011;1100;52.014;8.540;2023-06-22T00:56:39;5.07;;;1.85;;
2187;SDS011;1100;52.014;8.540;2023-06-22T00:59:05;6.00;;;1.97;;
2187;SDS011;1100;52.014;8.540;2023-06-22T01:01:31;4.78;;;2.05;;
2187;SDS011;1100;52.014;8.540;2023-06-22T01:03:57;4.80;;;1.80;;
2187;SDS011;1100;52.014;8.540;2023-06-22T01:06:26;7.43;;;2.03;;
2187;SDS011;1100;52.014;8.540;2023-06-22T01:09:15;4.75;;;2.20;;
2187;SDS011;1100;52.014;8.540;2023-06-22T01:11:47;5.45;;;1.95;;
2187;SDS011;1100;52.014;8.540;2023-06-22T01:14:28;6.07;;;2.22;;
2187;SDS011;1100;52.014;8.540;2023-06-22T01:17:02;5.40;;;2.70;;
2187;SDS011;1100;52.014;8.540;2023-06-22T01:22:21;4.97;;;1.95;;
2187;SDS011;1100;52.014;8.540;2023-06-22T01:30:06;5.60;;;2.40;;
2187;SDS011;1100;52.014;8.540;2023-06-22T01:32:35;6.72;;;2.55;;
2187;SDS011;1100;52.014;8.540;2023-06-22T01:35:04;4.85;;;2.50;;
2187;SDS011;1100;52.014;8.540;2023-06-22T01:37:32;5.32;;;2.83;;
2187;SDS011;1100;52.014;8.540;2023-06-22T01:39:59;5.53;;;2.65;;
2187;SDS011;1100;52.014;8.540;2023-06-22T01:42:25;6.03;;;2.40;;
2187;SDS011;1100;52.014;8.540;2023-06-22T01:44:54;5.45;;;2.58;;
2187;SDS011;1100;52.014;8.540;2023-06-22T01:47:21;5.20;;;3.25;;
2187;SDS011;1100;52.014;8.540;2023-06-22T01:49:47;6.20;;;2.53;;
2187;SDS011;1100;52.014;8.540;2023-06-22T01:52:14;6.10;;;2.78;;
2187;SDS011;1100;52.014;8.540;2023-06-22T01:54:40;6.05;;;2.60;;
2187;SDS011;1100;52.014;8.540;2023-06-22T01:57:06;4.80;;;2.50;;
2187;SDS011;1100;52.014;8.540;2023-06-22T01:59:35;5.40;;;2.37;;
2187;SDS011;1100;52.014;8.540;2023-06-22T02:02:09;6.07;;;3.20;;
2187;SDS011;1100;52.014;8.540;2023-06-22T02:07:09;5.20;;;2.17;;
2187;SDS011;1100;52.014;8.540;2023-06-22T02:09:38;7.03;;;2.90;;
2187;SDS011;1100;52.014;8.540;2023-06-22T02:12:08;5.53;;;2.58;;
2187;SDS011;1100;52.014;8.540;2023-06-22T02:14:36;5.68;;;3.25;;
2187;SDS011;1100;52.014;8.540;2023-06-22T02:17:02;5.70;;;2.90;;
2187;SDS011;1100;52.014;8.540;2023-06-22T02:19:27;7.10;;;3.37;;
2187;SDS011;1100;52.014;8.540;2023-06-22T02:21:53;7.03;;;2.70;;
2187;SDS011;1100;52.014;8.540;2023-06-22T02:24:18;5.87;;;3.07;;
2187;SDS011;1100;52.014;8.540;2023-06-22T02:26:43;6.67;;;3.07;;
2187;SDS011;1100;52.014;8.540;2023-06-22T02:29:10;8.30;;;3.53;;
2187;SDS011;1100;52.014;8.540;2023-06-22T02:31:35;9.00;;;3.80;;
2187;SDS011;1100;52.014;8.540;2023-06-22T02:34:01;7.37;;;3.80;;
2187;SDS011;1100;52.014;8.540;2023-06-22T02:36:26;6.60;;;3.13;;
2187;SDS011;1100;52.014;8.540;2023-06-22T02:38:52;6.65;;;3.53;;
2187;SDS011;1100;52.014;8.540;2023-06-22T02:41:19;8.55;;;3.15;;
2187;SDS011;1100;52.014;8.540;2023-06-22T02:43:45;6.03;;;2.90;;
2187;SDS011;1100;52.014;8.540;2023-06-22T02:46:11;7.38;;;2.90;;
2187;SDS011;1100;52.014;8.540;2023-06-22T02:48:37;6.13;;;2.73;;
2187;SDS011;1100;52.014;8.540;2023-06-22T02:51:03;6.38;;;3.10;;
2187;SDS011;1100;52.014;8.540;2023-06-22T02:53:28;5.90;;;2.63;;
2187;SDS011;1100;52.014;8.540;2023-06-22T02:55:55;7.80;;;4.07;;
2187;SDS011;1100;52.014;8.540;2023-06-22T02:58:20;7.10;;;3.42;;
2187;SDS011;1100;52.014;8.540;2023-06-22T03:00:46;11.27;;;3.50;;
2187;SDS011;1100;52.014;8.540;2023-06-22T03:03:11;8.07;;;3.87;;
2187;SDS011;1100;52.014;8.540;2023-06-22T03:05:36;6.45;;;3.40;;
2187;SDS011;1100;52.014;8.540;2023-06-22T03:08:02;6.97;;;4.43;;
2187;SDS011;1100;52.014;8.540;2023-06-22T03:10:27;6.13;;;3.30;;
2187;SDS011;1100;52.014;8.540;2023-06-22T03:12:53;6.07;;;3.40;;
2187;SDS011;1100;52.014;8.540;2023-06-22T03:15:18;5.63;;;2.70;;
2187;SDS011;1100;52.014;8.540;2023-06-22T03:17:43;6.50;;;3.30;;
2187;SDS011;1100;52.014;8.540;2023-06-22T03:20:09;7.47;;;3.67;;
2187;SDS011;1100;52.014;8.540;2023-06-22T03:22:36;6.50;;;3.10;;
2187;SDS011;1100;52.014;8.540;2023-06-22T03:25:02;7.65;;;3.38;;
2187;SDS011;1100;52.014;8.540;2023-06-22T03:27:28;9.43;;;4.22;;
2187;SDS011;1100;52.014;8.540;2023-06-22T03:29:53;7.23;;;3.60;;
2187;SDS011;1100;52.014;8.540;2023-06-22T03:32:19;6.70;;;3.03;;
2187;SDS011;1100;52.014;8.540;2023-06-22T03:34:44;5.63;;;2.97;;
2187;SDS011;1100;52.014;8.540;2023-06-22T03:37:13;8.40;;;3.50;;
2187;SDS011;1100;52.014;8.540;2023-06-22T03:39:39;7.43;;;4.13;;
2187;SDS011;1100;52.014;8.540;2023-06-22T03:42:05;5.68;;;3.25;;
2187;SDS011;1100;52.014;8.540;2023-06-22T03:44:31;6.17;;;3.00;;
2187;SDS011;1100;52.014;8.540;2023-06-22T03:46:56;6.50;;;2.87;;
2187;SDS011;1100;52.014;8.540;2023-06-22T03:49:21;5.17;;;2.80;;
2187;SDS011;1100;52.014;8.540;2023-06-22T03:51:47;6.77;;;3.40;;
2187;SDS011;1100;52.014;8.540;2023-06-22T03:54:12;6.00;;;3.00;;
2187;SDS011;1100;52.014;8.540;2023-06-22T03:56:38;6.65;;;3.25;;
2187;SDS011;1100;52.014;8.540;2023-06-22T03:59:03;6.60;;;3.20;;
2187;SDS011;1100;52.014;8.540;2023-06-22T04:01:28;7.17;;;3.67;;
2187;SDS011;1100;52.014;8.540;2023-06-22T04:03:54;6.53;;;3.13;;
2187;SDS011;1100;52.014;8.540;2023-06-22T04:06:19;7.53;;;3.60;;
2187;SDS011;1100;52.014;8.540;2023-06-22T04:08:45;7.20;;;3.17;;
2187;SDS011;1100;52.014;8.540;2023-06-22T04:11:13;8.37;;;4.13;;
2187;SDS011;1100;52.014;8.540;2023-06-22T04:13:38;10.82;;;3.75;;
2187;SDS011;1100;52.014;8.540;2023-06-22T04:16:03;6.77;;;3.30;;
2187;SDS011;1100;52.014;8.540;2023-06-22T04:18:29;8.13;;;3.77;;
2187;SDS011;1100;52.014;8.540;2023-06-22T04:20:54;5.33;;;3.07;;
2187;SDS011;1100;52.014;8.540;2023-06-22T04:23:20;10.30;;;3.97;;
2187;SDS011;1100;52.014;8.540;2023-06-22T04:25:45;5.77;;;3.20;;
2187;SDS011;1100;52.014;8.540;2023-06-22T04:28:10;7.97;;;3.13;;
2187;SDS011;1100;52.014;8.540;2023-06-22T04:30:37;5.70;;;2.97;;
2187;SDS011;1100;52.014;8.540;2023-06-22T04:33:11;6.45;;;3.70;;
2187;SDS011;1100;52.014;8.540;2023-06-22T04:35:39;6.30;;;3.67;;
2187;SDS011;1100;52.014;8.540;2023-06-22T04:38:07;7.32;;;3.55;;
2187;SDS011;1100;52.014;8.540;2023-06-22T04:40:33;5.83;;;2.70;;
2187;SDS011;1100;52.014;8.540;2023-06-22T04:42:58;7.07;;;3.60;;
2187;SDS011;1100;52.014;8.540;2023-06-22T04:45:27;5.30;;;2.63;;
2187;SDS011;1100;52.014;8.540;2023-06-22T04:47:53;6.93;;;3.55;;
2187;SDS011;1100;52.014;8.540;2023-06-22T04:50:18;7.60;;;3.33;;
2187;SDS011;1100;52.014;8.540;2023-06-22T04:52:45;7.22;;;3.83;;
2187;SDS011;1100;52.014;8.540;2023-06-22T04:55:11;9.07;;;4.33;;
2187;SDS011;1100;52.014;8.540;2023-06-22T04:57:36;7.27;;;3.37;;
2187;SDS011;1100;52.014;8.540;2023-06-22T05:00:04;6.75;;;3.92;;
2187;SDS011;1100;52.014;8.540;2023-06-22T05:02:37;6.85;;;3.38;;
2187;SDS011;1100;52.014;8.540;2023-06-22T05:05:05;7.60;;;3.97;;
2187;SDS011;1100;52.014;8.540;2023-06-22T05:07:32;8.63;;;4.07;;
2187;SDS011;1100;52.014;8.540;2023-06-22T05:09:58;7.65;;;4.15;;
2187;SDS011;1100;52.014;8.540;2023-06-22T05:12:24;7.53;;;3.58;;
2187;SDS011;1100;52.014;8.540;2023-06-22T05:14:49;9.67;;;3.73;;
2187;SDS011;1100;52.014;8.540;2023-06-22T05:17:14;7.63;;;3.97;;
2187;SDS011;1100;52.014;8.540;2023-06-22T05:19:44;6.68;;;3.95;;
2187;SDS011;1100;52.014;8.540;2023-06-22T05:22:13;7.40;;;3.67;;
2187;SDS011;1100;52.014;8.540;2023-06-22T05:24:39;7.38;;;3.78;;
2187;SDS011;1100;52.014;8.540;2023-06-22T05:27:04;7.30;;;3.60;;
2187;SDS011;1100;52.014;8.540;2023-06-22T05:29:30;7.35;;;3.20;;
2187;SDS011;1100;52.014;8.540;2023-06-22T05:31:55;7.57;;;3.97;;
2187;SDS011;1100;52.014;8.540;2023-06-22T05:34:20;6.43;;;3.43;;
2187;SDS011;1100;52.014;8.540;2023-06-22T05:36:46;7.13;;;3.70;;
2187;SDS011;1100;52.014;8.540;2023-06-22T05:39:11;7.00;;;3.20;;
2187;SDS011;1100;52.014;8.540;2023-06-22T05:41:40;7.55;;;3.97;;
2187;SDS011;1100;52.014;8.540;2023-06-22T05:44:06;7.93;;;3.78;;
2187;SDS011;1100;52.014;8.540;2023-06-22T05:46:31;8.80;;;4.10;;
2187;SDS011;1100;52.014;8.540;2023-06-22T05:48:57;6.27;;;3.47;;
2187;SDS011;1100;52.014;8.540;2023-06-22T05:51:22;7.53;;;3.93;;
2187;SDS011;1100;52.014;8.540;2023-06-22T05:53:47;6.67;;;3.80;;
2187;SDS011;1100;52.014;8.540;2023-06-22T05:56:15;6.28;;;3.63;;
2187;SDS011;1100;52.014;8.540;2023-06-22T05:58:41;7.50;;;3.85;;
2187;SDS011;1100;52.014;8.540;2023-06-22T06:01:06;8.97;;;4.40;;
2187;SDS011;1100;52.014;8.540;2023-06-22T06:03:31;8.57;;;5.20;;
2187;SDS011;1100;52.014;8.540;2023-06-22T06:05:56;6.63;;;4.00;;
2187;SDS011;1100;52.014;8.540;2023-06-22T06:08:22;8.17;;;4.00;;
2187;SDS011;1100;52.014;8.540;2023-06-22T06:10:47;7.07;;;4.23;;
2187;SDS011;1100;52.014;8.540;2023-06-22T06:13:13;7.85;;;3.83;;
2187;SDS011;1100;52.014;8.540;2023-06-22T06:15:38;8.23;;;4.10;;
2187;SDS011;1100;52.014;8.540;2023-06-22T06:18:04;7.00;;;3.47;;
2187;SDS011;1100;52.014;8.540;2023-06-22T06:20:30;7.88;;;3.55;;
2187;SDS011;1100;52.014;8.540;2023-06-22T06:22:56;7.50;;;3.87;;
2187;SDS011;1100;52.014;8.540;2023-06-22T06:25:22;8.30;;;3.72;;
2187;SDS011;1100;52.014;8.540;2023-06-22T06:27:48;5.93;;;2.70;;
2187;SDS011;1100;52.014;8.540;2023-06-22T06:30:15;8.93;;;4.03;;
2187;SDS011;1100;52.014;8.540;2023-06-22T06:32:43;6.40;;;3.70;;
2187;SDS011;1100;52.014;8.540;2023-06-22T06:35:10;6.68;;;3.53;;
2187;SDS011;1100;52.014;8.540;2023-06-22T06:37:37;7.72;;;3.80;;
2187;SDS011;1100;52.014;8.540;2023-06-22T06:40:05;7.43;;;4.00;;
2187;SDS011;1100;52.014;8.540;2023-06-22T06:42:35;6.65;;;3.60;;
2187;SDS011;1100;52.014;8.540;2023-06-22T06:45:02;6.25;;;3.08;;
2187;SDS011;1100;52.014;8.540;2023-06-22T06:47:28;7.35;;;3.60;;
2187;SDS011;1100;52.014;8.540;2023-06-22T06:49:53;6.47;;;3.60;;
2187;SDS011;1100;52.014;8.540;2023-06-22T06:52:19;6.20;;;3.07;;
2187;SDS011;1100;52.014;8.540;2023-06-22T06:54:45;6.78;;;3.35;;
2187;SDS011;1100;52.014;8.540;2023-06-22T06:57:10;7.57;;;2.87;;
2187;SDS011;1100;52.014;8.540;2023-06-22T06:59:38;7.28;;;3.30;;
2187;SDS011;1100;52.014;8.540;2023-06-22T07:02:03;6.80;;;3.10;;
2187;SDS011;1100;52.014;8.540;2023-06-22T07:04:30;5.95;;;2.90;;
2187;SDS011;1100;52.014;8.540;2023-06-22T07:06:55;6.23;;;2.93;;
2187;SDS011;1100;52.014;8.540;2023-06-22T07:09:20;6.23;;;2.90;;
2187;SDS011;1100;52.014;8.540;2023-06-22T07:11:46;5.53;;;2.93;;
2187;SDS011;1100;52.014;8.540;2023-06-22T07:14:11;6.43;;;3.10;;
2187;SDS011;1100;52.014;8.540;2023-06-22T07:16:36;6.37;;;3.00;;
2187;SDS011;1100;52.014;8.540;2023-06-22T07:19:02;5.60;;;2.73;;
2187;SDS011;1100;52.014;8.540;2023-06-22T07:21:27;6.30;;;3.03;;
2187;SDS011;1100;52.014;8.540;2023-06-22T07:23:52;6.60;;;3.17;;
2187;SDS011;1100;52.014;8.540;2023-06-22T07:26:19;4.93;;;2.53;;
2187;SDS011;1100;52.014;8.540;2023-06-22T07:28:44;6.57;;;3.30;;
2187;SDS011;1100;52.014;8.540;2023-06-22T07:31:09;5.07;;;2.33;;
2187;SDS011;1100;52.014;8.540;2023-06-22T07:33:35;5.30;;;2.60;;
2187;SDS011;1100;52.014;8.540;2023-06-22T07:36:00;6.30;;;2.97;;
2187;SDS011;1100;52.014;8.540;2023-06-22T07:38:25;6.22;;;3.45;;
2187;SDS011;1100;52.014;8.540;2023-06-22T07:40:51;5.83;;;3.03;;
2187;SDS011;1100;52.014;8.540;2023-06-22T07:43:18;6.43;;;3.13;;
2187;SDS011;1100;52.014;8.540;2023-06-22T07:45:48;6.57;;;2.90;;
2187;SDS011;1100;52.014;8.540;2023-06-22T07:48:17;5.93;;;2.60;;
2187;SDS011;1100;52.014;8.540;2023-06-22T07:50:44;7.15;;;2.97;;
2187;SDS011;1100;52.014;8.540;2023-06-22T07:53:10;5.97;;;2.77;;
2187;SDS011;1100;52.014;8.540;2023-06-22T07:55:35;7.87;;;2.87;;
2187;SDS011;1100;52.014;8.540;2023-06-22T07:58:00;8.37;;;3.60;;
2187;SDS011;1100;52.014;8.540;2023-06-22T08:00:26;7.13;;;3.50;;
2187;SDS011;1100;52.014;8.540;2023-06-22T08:02:51;9.53;;;3.27;;
2187;SDS011;1100;52.014;8.540;2023-06-22T08:05:16;7.20;;;3.53;;
2187;SDS011;1100;52.014;8.540;2023-06-22T08:07:42;7.22;;;3.42;;
2187;SDS011;1100;52.014;8.540;2023-06-22T08:10:10;6.93;;;2.80;;
2187;SDS011;1100;52.014;8.540;2023-06-22T08:12:36;8.13;;;3.60;;
2187;SDS011;1100;52.014;8.540;2023-06-22T08:15:01;7.90;;;3.80;;
2187;SDS011;1100;52.014;8.540;2023-06-22T08:17:27;6.40;;;3.33;;
2187;SDS011;1100;52.014;8.540;2023-06-22T08:19:52;7.63;;;3.97;;
2187;SDS011;1100;52.014;8.540;2023-06-22T08:22:17;7.50;;;3.37;;
2187;SDS011;1100;52.014;8.540;2023-06-22T08:24:43;5.88;;;2.95;;
2187;SDS011;1100;52.014;8.540;2023-06-22T08:27:09;6.70;;;3.43;;
2187;SDS011;1100;52.014;8.540;2023-06-22T08:29:38;6.53;;;3.08;;
2187;SDS011;1100;52.014;8.540;2023-06-22T08:32:03;6.97;;;3.47;;
2187;SDS011;1100;52.014;8.540;2023-06-22T08:34:29;6.90;;;3.33;;
2187;SDS011;1100;52.014;8.540;2023-06-22T08:36:55;6.70;;;3.40;;
2187;SDS011;1100;52.014;8.540;2023-06-22T08:39:20;7.28;;;3.10;;
2187;SDS011;1100;52.014;8.540;2023-06-22T08:41:47;6.57;;;3.27;;
2187;SDS011;1100;52.014;8.540;2023-06-22T08:44:13;8.00;;;3.58;;
2187;SDS011;1100;52.014;8.540;2023-06-22T08:46:38;7.43;;;3.07;;
2187;SDS011;1100;52.014;8.540;2023-06-22T08:49:05;6.72;;;3.25;;
2187;SDS011;1100;52.014;8.540;2023-06-22T08:51:31;6.05;;;2.72;;
2187;SDS011;1100;52.014;8.540;2023-06-22T08:53:57;8.13;;;3.30;;
2187;SDS011;1100;52.014;8.540;2023-06-22T08:56:22;7.40;;;3.73;;
2187;SDS011;1100;52.014;8.540;2023-06-22T08:58:47;7.17;;;2.80;;
2187;SDS011;1100;52.014;8.540;2023-06-22T09:01:12;6.83;;;3.20;;
2187;SDS011;1100;52.014;8.540;2023-06-22T09:03:40;5.75;;;2.53;;
2187;SDS011;1100;52.014;8.540;2023-06-22T09:06:06;6.88;;;3.47;;
2187;SDS011;1100;52.014;8.540;2023-06-22T09:08:34;6.22;;;3.22;;
2187;SDS011;1100;52.014;8.540;2023-06-22T09:10:59;5.53;;;3.00;;
2187;SDS011;1100;52.014;8.540;2023-06-22T09:13:25;8.17;;;5.13;;
2187;SDS011;1100;52.014;8.540;2023-06-22T09:15:50;6.53;;;2.83;;
2187;SDS011;1100;52.014;8.540;2023-06-22T09:18:15;6.57;;;2.97;;
2187;SDS011;1100;52.014;8.540;2023-06-22T09:20:41;5.33;;;2.50;;
2187;SDS011;1100;52.014;8.540;2023-06-22T09:23:06;5.83;;;2.93;;
2187;SDS011;1100;52.014;8.540;2023-06-22T09:25:31;7.70;;;3.23;;
2187;SDS011;1100;52.014;8.540;2023-06-22T09:27:57;6.70;;;3.10;;
2187;SDS011;1100;52.014;8.540;2023-06-22T09:30:22;6.18;;;2.80;;
2187;SDS011;1100;52.014;8.540;2023-06-22T09:32:48;5.50;;;2.63;;
2187;SDS011;1100;52.014;8.540;2023-06-22T09:35:13;5.70;;;2.60;;
2187;SDS011;1100;52.014;8.540;2023-06-22T09:37:39;7.27;;;2.80;;
2187;SDS011;1100;52.014;8.540;2023-06-22T09:40:05;5.57;;;2.95;;
2187;SDS011;1100;52.014;8.540;2023-06-22T09:42:34;6.00;;;2.90;;
2187;SDS011;1100;52.014;8.540;2023-06-22T09:44:59;6.17;;;2.27;;
2187;SDS011;1100;52.014;8.540;2023-06-22T09:47:24;5.30;;;2.40;;
2187;SDS011;1100;52.014;8.540;2023-06-22T09:49:50;5.83;;;2.47;;
2187;SDS011;1100;52.014;8.540;2023-06-22T09:52:15;5.43;;;2.70;;
2187;SDS011;1100;52.014;8.540;2023-06-22T09:54:41;6.75;;;2.60;;
2187;SDS011;1100;52.014;8.540;2023-06-22T09:57:06;6.10;;;2.80;;
2187;SDS011;1100;52.014;8.540;2023-06-22T09:59:31;5.37;;;2.90;;
2187;SDS011;1100;52.014;8.540;2023-06-22T10:01:57;5.45;;;2.70;;
2187;SDS011;1100;52.014;8.540;2023-06-22T10:04:22;5.53;;;2.50;;
2187;SDS011;1100;52.014;8.540;2023-06-22T10:06:48;4.87;;;2.50;;
2187;SDS011;1100;52.014;8.540;2023-06-22T10:09:13;5.93;;;3.30;;
2187;SDS011;1100;52.014;8.540;2023-06-22T10:11:39;5.33;;;2.70;;
2187;SDS011;1100;52.014;8.540;2023-06-22T10:14:04;5.53;;;2.50;;
2187;SDS011;1100;52.014;8.540;2023-06-22T10:16:32;5.73;;;2.73;;
2187;SDS011;1100;52.014;8.540;2023-06-22T10:19:00;6.50;;;2.88;;
2187;SDS011;1100;52.014;8.540;2023-06-22T10:21:25;7.33;;;3.10;;
2187;SDS011;1100;52.014;8.540;2023-06-22T10:23:52;6.28;;;2.75;;
2187;SDS011;1100;52.014;8.540;2023-06-22T10:26:17;5.53;;;2.80;;
2187;SDS011;1100;52.014;8.540;2023-06-22T10:28:43;5.70;;;2.87;;
2187;SDS011;1100;52.014;8.540;2023-06-22T10:31:08;6.07;;;3.10;;
2187;SDS011;1100;52.014;8.540;2023-06-22T10:33:33;5.20;;;2.77;;
2187;SDS011;1100;52.014;8.540;2023-06-22T10:35:59;5.43;;;2.90;;
2187;SDS011;1100;52.014;8.540;2023-06-22T10:38:24;5.28;;;2.90;;
2187;SDS011;1100;52.014;8.540;2023-06-22T10:40:49;6.77;;;2.60;;
2187;SDS011;1100;52.014;8.540;2023-06-22T10:43:15;4.90;;;2.53;;
2187;SDS011;1100;52.014;8.540;2023-06-22T10:45:40;5.57;;;2.63;;
2187;SDS011;1100;52.014;8.540;2023-06-22T10:48:05;5.80;;;2.57;;
2187;SDS011;1100;52.014;8.540;2023-06-22T10:50:30;6.10;;;3.17;;
2187;SDS011;1100;52.014;8.540;2023-06-22T10:52:56;4.50;;;2.23;;
2187;SDS011;1100;52.014;8.540;2023-06-22T10:55:21;6.23;;;2.97;;
2187;SDS011;1100;52.014;8.540;2023-06-22T10:57:46;5.65;;;2.53;;
2187;SDS011;1100;52.014;8.540;2023-06-22T11:00:13;5.20;;;2.90;;
2187;SDS011;1100;52.014;8.540;2023-06-22T11:02:39;5.05;;;2.53;;
2187;SDS011;1100;52.014;8.540;2023-06-22T11:05:05;6.73;;;2.40;;
2187;SDS011;1100;52.014;8.540;2023-06-22T11:07:30;6.40;;;2.55;;
2187;SDS011;1100;52.014;8.540;2023-06-22T11:09:56;5.70;;;2.60;;
2187;SDS011;1100;52.014;8.540;2023-06-22T11:12:21;5.00;;;2.47;;
2187;SDS011;1100;52.014;8.540;2023-06-22T11:14:46;5.57;;;2.72;;
2187;SDS011;1100;52.014;8.540;2023-06-22T11:17:12;4.97;;;2.37;;
2187;SDS011;1100;52.014;8.540;2023-06-22T11:19:37;5.27;;;2.50;;
2187;SDS011;1100;52.014;8.540;2023-06-22T11:22:02;5.50;;;2.60;;
2187;SDS011;1100;52.014;8.540;2023-06-22T11:24:28;5.70;;;2.40;;
2187;SDS011;1100;52.014;8.540;2023-06-22T11:26:53;5.10;;;2.43;;
2187;SDS011;1100;52.014;8.540;2023-06-22T11:29:18;5.13;;;2.67;;
2187;SDS011;1100;52.014;8.540;2023-06-22T11:31:44;4.60;;;2.50;;
2187;SDS011;1100;52.014;8.540;2023-06-22T11:34:09;5.07;;;2.40;;
2187;SDS011;1100;52.014;8.540;2023-06-22T11:36:34;6.43;;;2.73;;
2187;SDS011;1100;52.014;8.540;2023-06-22T11:39:00;5.93;;;2.80;;
2187;SDS011;1100;52.014;8.540;2023-06-22T11:41:26;7.13;;;3.28;;
2187;SDS011;1100;52.014;8.540;2023-06-22T11:43:51;4.97;;;2.70;;
2187;SDS011;1100;52.014;8.540;2023-06-22T11:46:17;6.17;;;2.67;;
2187;SDS011;1100;52.014;8.540;2023-06-22T11:48:42;5.10;;;2.53;;
2187;SDS011;1100;52.014;8.540;2023-06-22T11:51:07;4.93;;;2.37;;
2187;SDS011;1100;52.014;8.540;2023-06-22T11:53:33;5.47;;;2.60;;
2187;SDS011;1100;52.014;8.540;2023-06-22T11:56:00;5.35;;;2.47;;
2187;SDS011;1100;52.014;8.540;2023-06-22T11:58:26;6.22;;;2.35;;
2187;SDS011;1100;52.014;8.540;2023-06-22T12:00:51;5.10;;;2.87;;
2187;SDS011;1100;52.014;8.540;2023-06-22T12:03:17;4.82;;;2.72;;
2187;SDS011;1100;52.014;8.540;2023-06-22T12:05:42;5.03;;;2.63;;
2187;SDS011;1100;52.014;8.540;2023-06-22T12:08:07;5.90;;;3.10;;
2187;SDS011;1100;52.014;8.540;2023-06-22T12:10:33;5.67;;;2.70;;
2187;SDS011;1100;52.014;8.540;2023-06-22T12:12:59;4.72;;;2.35;;
2187;SDS011;1100;52.014;8.540;2023-06-22T12:15:25;4.90;;;2.60;;
2187;SDS011;1100;52.014;8.540;2023-06-22T12:17:51;5.60;;;3.00;;
2187;SDS011;1100;52.014;8.540;2023-06-22T12:20:16;5.47;;;2.63;;
2187;SDS011;1100;52.014;8.540;2023-06-22T12:22:42;5.47;;;2.60;;
2187;SDS011;1100;52.014;8.540;2023-06-22T12:25:08;4.80;;;2.50;;
2187;SDS011;1100;52.014;8.540;2023-06-22T12:27:34;6.03;;;2.83;;
2187;SDS011;1100;52.014;8.540;2023-06-22T12:30:02;5.45;;;2.67;;
2187;SDS011;1100;52.014;8.540;2023-06-22T12:32:29;4.95;;;2.55;;
2187;SDS011;1100;52.014;8.540;2023-06-22T12:34:55;5.43;;;2.57;;
2187;SDS011;1100;52.014;8.540;2023-06-22T12:37:21;5.90;;;3.05;;
2187;SDS011;1100;52.014;8.540;2023-06-22T12:39:46;10.63;;;2.83;;
2187;SDS011;1100;52.014;8.540;2023-06-22T12:42:11;5.50;;;2.23;;
2187;SDS011;1100;52.014;8.540;2023-06-22T12:44:38;6.45;;;3.30;;
2187;SDS011;1100;52.014;8.540;2023-06-22T12:47:04;5.03;;;2.72;;
2187;SDS011;1100;52.014;8.540;2023-06-22T12:49:30;5.23;;;2.67;;
2187;SDS011;1100;52.014;8.540;2023-06-22T12:51:55;4.77;;;2.30;;
2187;SDS011;1100;52.014;8.540;2023-06-22T12:54:21;5.97;;;2.70;;
2187;SDS011;1100;52.014;8.540;2023-06-22T12:56:46;5.50;;;2.83;;
2187;SDS011;1100;52.014;8.540;2023-06-22T12:59:12;5.43;;;2.53;;
2187;SDS011;1100;52.014;8.540;2023-06-22T13:01:37;6.63;;;2.78;;
2187;SDS011;1100;52.014;8.540;2023-06-22T13:04:03;5.50;;;2.60;;
2187;SDS011;1100;52.014;8.540;2023-06-22T13:06:29;6.10;;;2.87;;
2187;SDS011;1100;52.014;8.540;2023-06-22T13:08:54;6.18;;;2.88;;
2187;SDS011;1100;52.014;8.540;2023-06-22T13:11:19;5.83;;;3.10;;
2187;SDS011;1100;52.014;8.540;2023-06-22T13:13:45;5.87;;;3.27;;
2187;SDS011;1100;52.014;8.540;2023-06-22T13:16:11;5.45;;;2.88;;
2187;SDS011;1100;52.014;8.540;2023-06-22T13:18:36;6.18;;;2.88;;
2187;SDS011;1100;52.014;8.540;2023-06-22T13:21:02;5.90;;;2.57;;
2187;SDS011;1100;52.014;8.540;2023-06-22T13:23:28;6.07;;;2.92;;
2187;SDS011;1100;52.014;8.540;2023-06-22T13:25:53;7.33;;;3.80;;
2187;SDS011;1100;52.014;8.540;2023-06-22T13:28:19;6.67;;;3.40;;
2187;SDS011;1100;52.014;8.540;2023-06-22T13:30:45;7.20;;;3.47;;
2187;SDS011;1100;52.014;8.540;2023-06-22T13:33:12;7.40;;;3.08;;
2187;SDS011;1100;52.014;8.540;2023-06-22T13:35:40;6.60;;;3.17;;
2187;SDS011;1100;52.014;8.540;2023-06-22T13:38:09;7.00;;;3.27;;
2187;SDS011;1100;52.014;8.540;2023-06-22T13:40:35;7.47;;;3.53;;
2187;SDS011;1100;52.014;8.540;2023-06-22T13:43:02;7.40;;;3.85;;
2187;SDS011;1100;52.014;8.540;2023-06-22T13:45:28;8.30;;;4.03;;
2187;SDS011;1100;52.014;8.540;2023-06-22T13:47:53;7.40;;;3.80;;
2187;SDS011;1100;52.014;8.540;2023-06-22T13:50:19;9.17;;;4.60;;
2187;SDS011;1100;52.014;8.540;2023-06-22T13:52:44;6.88;;;3.13;;
2187;SDS011;1100;52.014;8.540;2023-06-22T13:55:10;9.60;;;4.40;;
2187;SDS011;1100;52.014;8.540;2023-06-22T13:57:35;8.37;;;4.17;;
2187;SDS011;1100;52.014;8.540;2023-06-22T14:00:02;8.38;;;4.15;;
2187;SDS011;1100;52.014;8.540;2023-06-22T14:02:30;7.68;;;3.97;;
2187;SDS011;1100;52.014;8.540;2023-06-22T14:04:55;8.50;;;4.67;;
2187;SDS011;1100;52.014;8.540;2023-06-22T14:07:20;7.90;;;4.13;;
2187;SDS011;1100;52.014;8.540;2023-06-22T14:09:46;8.27;;;4.93;;
2187;SDS011;1100;52.014;8.540;2023-06-22T14:12:11;8.87;;;4.73;;
2187;SDS011;1100;52.014;8.540;2023-06-22T14:14:37;9.05;;;4.35;;
2187;SDS011;1100;52.014;8.540;2023-06-22T14:17:03;9.93;;;5.80;;
2187;SDS011;1100;52.014;8.540;2023-06-22T14:19:29;9.00;;;4.65;;
2187;SDS011;1100;52.014;8.540;2023-06-22T14:21:54;9.57;;;4.70;;
2187;SDS011;1100;52.014;8.540;2023-06-22T14:24:20;8.53;;;4.50;;
2187;SDS011;1100;52.014;8.540;2023-06-22T14:26:45;7.78;;;4.68;;
2187;SDS011;1100;52.014;8.540;2023-06-22T14:29:10;7.83;;;4.23;;
2187;SDS011;1100;52.014;8.540;2023-06-22T14:31:36;8.13;;;4.00;;
2187;SDS011;1100;52.014;8.540;2023-06-22T14:34:01;8.30;;;4.50;;
2187;SDS011;1100;52.014;8.540;2023-06-22T14:36:28;8.82;;;4.97;;
2187;SDS011;1100;52.014;8.540;2023-06-22T14:38:53;9.57;;;4.93;;
2187;SDS011;1100;52.014;8.540;2023-06-22T14:41:19;7.40;;;4.03;;
2187;SDS011;1100;52.014;8.540;2023-06-22T14:43:45;9.93;;;5.53;;
2187;SDS011;1100;52.014;8.540;2023-06-22T14:46:14;8.90;;;4.00;;
2187;SDS011;1100;52.014;8.540;2023-06-22T14:48:40;8.18;;;4.38;;
2187;SDS011;1100;52.014;8.540;2023-06-22T14:51:06;7.38;;;4.35;;
2187;SDS011;1100;52.014;8.540;2023-06-22T14:53:31;9.27;;;4.00;;
2187;SDS011;1100;52.014;8.540;2023-06-22T14:55:56;9.13;;;5.10;;
2187;SDS011;1100;52.014;8.540;2023-06-22T14:58:22;9.03;;;4.47;;
2187;SDS011;1100;52.014;8.540;2023-06-22T15:00:47;8.30;;;4.40;;
2187;SDS011;1100;52.014;8.540;2023-06-22T15:03:12;8.67;;;4.37;;
2187;SDS011;1100;52.014;8.540;2023-06-22T15:05:42;6.60;;;3.83;;
2187;SDS011;1100;52.014;8.540;2023-06-22T15:08:08;7.03;;;4.22;;
2187;SDS011;1100;52.014;8.540;2023-06-22T15:10:34;7.27;;;4.67;;
2187;SDS011;1100;52.014;8.540;2023-06-22T15:12:59;9.60;;;4.93;;
2187;SDS011;1100;52.014;8.540;2023-06-22T15:15:24;8.82;;;4.32;;
2187;SDS011;1100;52.014;8.540;2023-06-22T15:17:50;7.07;;;4.00;;